createdAt,value
2017-12-14T00:00:15.296Z,973.50
2017-12-14T00:01:21.295Z,973.47
2017-12-14T00:02:27.268Z,973.44
2017-12-14T00:03:33.320Z,973.40
2017-12-14T00:04:39.396Z,973.32
2017-12-14T00:05:45.508Z,973.30
2017-12-14T00:06:51.097Z,973.43
2017-12-14T00:07:57.723Z,973.40
2017-12-14T00:09:03.777Z,973.29
2017-12-14T00:10:09.887Z,973.26
2017-12-14T00:11:15.975Z,973.46
2017-12-14T00:12:22.096Z,973.36
2017-12-14T00:13:28.197Z,973.36
2017-12-14T00:14:34.271Z,973.39
2017-12-14T00:15:40.361Z,973.37
2017-12-14T00:16:46.457Z,973.43
2017-12-14T00:17:52.570Z,973.34
2017-12-14T00:18:58.641Z,973.35
2017-12-14T00:20:04.740Z,973.40
2017-12-14T00:21:10.826Z,973.41
2017-12-14T00:22:16.941Z,973.46
2017-12-14T00:23:22.569Z,973.50
2017-12-14T00:24:28.627Z,973.49
2017-12-14T00:25:35.213Z,973.62
2017-12-14T00:26:41.303Z,973.56
2017-12-14T00:27:47.393Z,973.48
2017-12-14T00:28:53.535Z,973.40
2017-12-14T00:29:59.590Z,973.38
2017-12-14T00:31:05.670Z,973.34
2017-12-14T00:32:11.770Z,973.20
2017-12-14T00:33:17.867Z,973.21
2017-12-14T00:34:23.944Z,973.34
2017-12-14T00:35:30.033Z,973.19
2017-12-14T00:36:36.119Z,973.18
2017-12-14T00:37:42.309Z,973.07
2017-12-14T00:38:48.324Z,973.10
2017-12-14T00:39:54.371Z,973.27
2017-12-14T00:41:01.450Z,972.98
2017-12-14T00:42:06.542Z,973.14
2017-12-14T00:43:12.654Z,973.17
2017-12-14T00:44:18.738Z,973.21
2017-12-14T00:45:24.858Z,973.09
2017-12-14T00:46:30.904Z,973.03
2017-12-14T00:47:36.992Z,973.08
2017-12-14T00:48:43.135Z,972.92
2017-12-14T00:49:49.171Z,973.10
2017-12-14T00:50:55.238Z,972.86
2017-12-14T00:52:01.308Z,973.08
2017-12-14T00:53:07.380Z,973.12
2017-12-14T00:54:13.484Z,972.85
2017-12-14T00:55:19.540Z,972.98
2017-12-14T00:56:25.132Z,972.94
2017-12-14T00:57:31.792Z,972.82
2017-12-14T00:58:37.818Z,973.08
2017-12-14T00:59:43.863Z,973.00
2017-12-14T01:00:49.949Z,972.94
2017-12-14T01:01:56.035Z,973.06
2017-12-14T01:03:02.110Z,972.96
2017-12-14T01:04:08.209Z,973.11
2017-12-14T01:05:14.276Z,973.10
2017-12-14T01:06:20.343Z,973.23
2017-12-14T01:07:25.956Z,973.13
2017-12-14T01:08:32.496Z,973.09
2017-12-14T01:09:38.606Z,973.20
2017-12-14T01:10:44.667Z,973.18
2017-12-14T01:11:50.740Z,973.10
2017-12-14T01:12:56.834Z,973.20
2017-12-14T01:14:02.932Z,973.14
2017-12-14T01:15:09.012Z,972.90
2017-12-14T01:16:15.116Z,973.14
2017-12-14T01:17:21.142Z,973.28
2017-12-14T01:18:27.210Z,973.01
2017-12-14T01:19:33.323Z,973.31
2017-12-14T01:20:39.366Z,973.17
2017-12-14T01:21:45.446Z,973.06
2017-12-14T01:22:51.533Z,973.19
2017-12-14T01:23:57.625Z,973.13
2017-12-14T01:25:03.708Z,973.22
2017-12-14T01:26:09.754Z,973.30
2017-12-14T01:27:15.839Z,973.23
2017-12-14T01:28:21.914Z,973.08
2017-12-14T01:29:28.001Z,973.18
2017-12-14T01:30:34.101Z,973.31
2017-12-14T01:31:40.153Z,973.35
2017-12-14T01:32:46.232Z,973.35
2017-12-14T01:33:52.308Z,973.19
2017-12-14T01:34:58.416Z,973.34
2017-12-14T01:36:04.457Z,973.25
2017-12-14T01:37:10.535Z,973.30
2017-12-14T01:38:16.623Z,973.48
2017-12-14T01:39:22.726Z,973.20
2017-12-14T01:40:28.799Z,973.24
2017-12-14T01:41:34.853Z,973.39
2017-12-14T01:42:40.942Z,973.29
2017-12-14T01:43:47.114Z,973.33
2017-12-14T01:44:53.127Z,973.31
2017-12-14T01:45:59.206Z,973.25
2017-12-14T01:47:05.253Z,973.19
2017-12-14T01:48:11.324Z,973.20
2017-12-14T01:49:17.397Z,973.28
2017-12-14T01:50:23.504Z,973.18
2017-12-14T01:51:29.584Z,973.40
2017-12-14T01:52:35.627Z,973.40
2017-12-14T01:53:41.742Z,973.21
2017-12-14T01:54:47.785Z,973.42
2017-12-14T01:55:53.886Z,973.45
2017-12-14T01:56:59.934Z,973.44
2017-12-14T01:58:06.108Z,973.49
2017-12-14T01:59:12.104Z,973.56
2017-12-14T02:00:18.169Z,973.59
2017-12-14T02:01:24.255Z,973.62
2017-12-14T02:02:30.315Z,973.64
2017-12-14T02:03:36.442Z,973.61
2017-12-14T02:04:42.473Z,973.64
2017-12-14T02:05:48.570Z,973.75
2017-12-14T02:06:54.631Z,973.75
2017-12-14T02:08:00.713Z,973.85
2017-12-14T02:09:06.767Z,973.76
2017-12-14T02:10:12.868Z,973.76
2017-12-14T02:11:18.980Z,973.69
2017-12-14T02:12:25.019Z,973.60
2017-12-14T02:13:31.119Z,973.64
2017-12-14T02:14:37.181Z,973.52
2017-12-14T02:15:43.247Z,973.45
2017-12-14T02:16:49.343Z,973.34
2017-12-14T02:17:55.393Z,973.55
2017-12-14T02:19:01.464Z,973.63
2017-12-14T02:20:07.547Z,973.63
2017-12-14T02:21:13.634Z,973.54
2017-12-14T02:22:19.709Z,973.43
2017-12-14T02:23:25.835Z,973.55
2017-12-14T02:24:31.864Z,973.34
2017-12-14T02:25:37.945Z,973.45
2017-12-14T02:26:44.041Z,973.52
2017-12-14T02:27:50.125Z,973.51
2017-12-14T02:28:56.179Z,973.41
2017-12-14T02:30:02.272Z,973.50
2017-12-14T02:31:08.341Z,973.54
2017-12-14T02:32:14.429Z,973.52
2017-12-14T02:33:20.517Z,973.41
2017-12-14T02:34:26.585Z,973.18
2017-12-14T02:35:32.657Z,973.22
2017-12-14T02:36:38.749Z,973.16
2017-12-14T02:37:44.807Z,973.18
2017-12-14T02:38:50.877Z,973.34
2017-12-14T02:39:56.973Z,973.41
2017-12-14T02:41:03.117Z,973.38
2017-12-14T02:42:09.208Z,973.34
2017-12-14T02:43:15.233Z,973.40
2017-12-14T02:44:21.276Z,973.37
2017-12-14T02:45:27.351Z,973.40
2017-12-14T02:46:33.433Z,973.43
2017-12-14T02:47:39.039Z,973.30
2017-12-14T02:48:45.617Z,973.34
2017-12-14T02:49:51.673Z,973.35
2017-12-14T02:50:57.814Z,973.35
2017-12-14T02:52:03.867Z,973.33
2017-12-14T02:53:09.925Z,973.40
2017-12-14T02:54:16.002Z,973.38
2017-12-14T02:55:22.110Z,973.36
2017-12-14T02:56:28.172Z,973.36
2017-12-14T02:57:34.262Z,973.32
2017-12-14T02:58:40.335Z,973.38
2017-12-14T02:59:46.419Z,973.39
2017-12-14T03:00:52.479Z,973.29
2017-12-14T03:01:58.583Z,973.26
2017-12-14T03:03:04.675Z,973.16
2017-12-14T03:04:10.746Z,973.18
2017-12-14T03:05:16.814Z,973.08
2017-12-14T03:06:22.930Z,973.00
2017-12-14T03:07:29.000Z,972.98
2017-12-14T03:08:35.063Z,973.03
2017-12-14T03:09:41.166Z,972.95
2017-12-14T03:10:47.250Z,972.92
2017-12-14T03:11:53.354Z,972.85
2017-12-14T03:12:59.441Z,972.85
2017-12-14T03:14:05.482Z,972.84
2017-12-14T03:15:11.601Z,972.78
2017-12-14T03:16:17.665Z,972.81
2017-12-14T03:17:23.747Z,972.76
2017-12-14T03:18:29.861Z,972.76
2017-12-14T03:19:36.047Z,972.81
2017-12-14T03:20:41.997Z,972.67
2017-12-14T03:21:48.105Z,972.68
2017-12-14T03:22:54.188Z,972.67
2017-12-14T03:24:00.246Z,972.51
2017-12-14T03:25:06.325Z,972.52
2017-12-14T03:26:12.412Z,972.42
2017-12-14T03:27:18.509Z,972.55
2017-12-14T03:28:24.599Z,972.59
2017-12-14T03:29:30.685Z,972.42
2017-12-14T03:30:36.768Z,972.62
2017-12-14T03:31:42.351Z,972.69
2017-12-14T03:32:48.977Z,972.82
2017-12-14T03:33:55.028Z,972.80
2017-12-14T03:35:01.108Z,972.82
2017-12-14T03:36:07.207Z,972.95
2017-12-14T03:37:13.292Z,972.90
2017-12-14T03:38:18.901Z,972.86
2017-12-14T03:39:25.479Z,972.92
2017-12-14T03:40:31.549Z,972.99
2017-12-14T03:41:37.644Z,973.06
2017-12-14T03:42:43.234Z,973.10
2017-12-14T03:43:49.845Z,973.13
2017-12-14T03:44:55.903Z,973.01
2017-12-14T03:46:01.996Z,973.10
2017-12-14T03:47:07.590Z,973.05
2017-12-14T03:48:14.192Z,972.96
2017-12-14T03:49:20.258Z,972.90
2017-12-14T03:50:26.343Z,972.66
2017-12-14T03:51:32.424Z,972.62
2017-12-14T03:52:38.509Z,972.43
2017-12-14T03:53:44.651Z,972.50
2017-12-14T03:54:50.705Z,972.71
2017-12-14T03:55:56.782Z,972.65
2017-12-14T03:57:02.889Z,972.66
2017-12-14T03:58:08.958Z,972.80
2017-12-14T03:59:15.074Z,972.83
2017-12-14T04:00:21.152Z,972.79
2017-12-14T04:01:27.237Z,972.74
2017-12-14T04:02:34.313Z,972.72
2017-12-14T04:03:39.425Z,972.64
2017-12-14T04:04:45.524Z,972.52
2017-12-14T04:05:51.604Z,972.51
2017-12-14T04:06:57.695Z,972.46
2017-12-14T04:08:03.290Z,972.38
2017-12-14T04:09:09.890Z,972.44
2017-12-14T04:10:15.978Z,972.30
2017-12-14T04:11:22.125Z,972.29
2017-12-14T04:12:28.149Z,972.40
2017-12-14T04:13:33.737Z,972.52
2017-12-14T04:14:40.354Z,972.55
2017-12-14T04:15:46.432Z,972.57
2017-12-14T04:16:52.504Z,972.67
2017-12-14T04:17:58.618Z,972.67
2017-12-14T04:19:04.716Z,972.58
2017-12-14T04:20:10.787Z,972.64
2017-12-14T04:21:16.866Z,972.77
2017-12-14T04:22:22.947Z,972.72
2017-12-14T04:23:29.038Z,972.64
2017-12-14T04:24:35.145Z,972.58
2017-12-14T04:25:41.203Z,972.56
2017-12-14T04:26:47.330Z,972.71
2017-12-14T04:27:53.399Z,972.59
2017-12-14T04:28:59.505Z,972.65
2017-12-14T04:30:05.563Z,972.98
2017-12-14T04:31:11.688Z,972.83
2017-12-14T04:32:17.736Z,972.93
2017-12-14T04:33:23.821Z,973.08
2017-12-14T04:34:29.932Z,973.07
2017-12-14T04:35:35.964Z,973.20
2017-12-14T04:36:42.101Z,973.19
2017-12-14T04:37:48.164Z,972.82
2017-12-14T04:38:53.724Z,973.35
2017-12-14T04:40:00.313Z,973.39
2017-12-14T04:41:06.368Z,973.16
2017-12-14T04:42:12.449Z,973.36
2017-12-14T04:43:18.532Z,973.06
2017-12-14T04:44:24.641Z,973.34
2017-12-14T04:45:30.181Z,973.34
2017-12-14T04:46:36.767Z,973.33
2017-12-14T04:47:42.361Z,973.66
2017-12-14T04:48:48.942Z,973.53
2017-12-14T04:49:55.026Z,973.68
2017-12-14T04:51:01.080Z,973.73
2017-12-14T04:52:07.163Z,973.26
2017-12-14T04:53:12.733Z,973.75
2017-12-14T04:54:19.331Z,973.47
2017-12-14T04:55:25.399Z,973.61
2017-12-14T04:56:31.467Z,973.85
2017-12-14T04:57:37.565Z,973.78
2017-12-14T04:58:43.647Z,973.81
2017-12-14T04:59:49.725Z,974.25
2017-12-14T05:00:55.785Z,973.55
2017-12-14T05:02:01.866Z,973.82
2017-12-14T05:03:07.959Z,974.02
2017-12-14T05:04:14.140Z,973.91
2017-12-14T05:05:20.139Z,973.62
2017-12-14T05:06:26.173Z,973.95
2017-12-14T05:07:32.256Z,974.03
2017-12-14T05:08:38.357Z,974.39
2017-12-14T05:09:45.434Z,974.15
2017-12-14T05:10:50.003Z,973.83
2017-12-14T05:11:56.069Z,973.91
2017-12-14T05:13:02.632Z,974.30
2017-12-14T05:14:08.738Z,974.48
2017-12-14T05:15:14.817Z,974.17
2017-12-14T05:16:20.879Z,974.11
2017-12-14T05:17:26.946Z,974.24
2017-12-14T05:18:33.021Z,974.02
2017-12-14T05:19:38.633Z,974.04
2017-12-14T05:20:45.198Z,974.33
2017-12-14T05:21:51.241Z,974.15
2017-12-14T05:22:57.313Z,974.59
2017-12-14T05:24:03.397Z,974.09
2017-12-14T05:25:09.503Z,974.16
2017-12-14T05:26:15.091Z,974.41
2017-12-14T05:27:21.123Z,974.60
2017-12-14T05:28:27.681Z,974.27
2017-12-14T05:29:33.790Z,974.09
2017-12-14T05:30:39.839Z,974.18
2017-12-14T05:31:45.431Z,974.39
2017-12-14T05:32:51.979Z,974.19
2017-12-14T05:33:57.555Z,974.44
2017-12-14T05:35:04.145Z,974.75
2017-12-14T05:36:10.211Z,974.66
2017-12-14T05:37:16.281Z,974.58
2017-12-14T05:38:22.382Z,974.69
2017-12-14T05:39:28.432Z,974.83
2017-12-14T05:40:34.492Z,974.51
2017-12-14T05:41:40.599Z,974.48
2017-12-14T05:42:46.663Z,974.56
2017-12-14T05:43:52.711Z,974.61
2017-12-14T05:44:58.812Z,974.56
2017-12-14T05:46:04.874Z,974.32
2017-12-14T05:47:10.954Z,974.63
2017-12-14T05:48:17.011Z,974.89
2017-12-14T05:49:23.132Z,974.53
2017-12-14T05:50:29.175Z,974.58
2017-12-14T05:51:35.261Z,974.66
2017-12-14T05:52:41.312Z,974.64
2017-12-14T05:53:47.383Z,974.62
2017-12-14T05:54:53.505Z,974.85
2017-12-14T05:55:59.540Z,974.93
2017-12-14T05:57:05.606Z,974.58
2017-12-14T05:58:11.688Z,974.87
2017-12-14T05:59:17.776Z,974.73
2017-12-14T06:00:23.882Z,974.90
2017-12-14T06:01:29.923Z,974.62
2017-12-14T06:02:35.980Z,975.04
2017-12-14T06:03:42.105Z,974.82
2017-12-14T06:04:48.154Z,975.01
2017-12-14T06:05:54.201Z,974.89
2017-12-14T06:07:00.274Z,974.97
2017-12-14T06:08:06.397Z,975.15
2017-12-14T06:09:12.416Z,975.20
2017-12-14T06:10:18.534Z,975.23
2017-12-14T06:11:24.580Z,975.32
2017-12-14T06:12:30.651Z,974.99
2017-12-14T06:13:36.222Z,975.56
2017-12-14T06:14:42.820Z,974.73
2017-12-14T06:15:48.868Z,975.15
2017-12-14T06:16:54.951Z,974.88
2017-12-14T06:18:01.041Z,975.38
2017-12-14T06:19:07.089Z,975.54
2017-12-14T06:20:12.687Z,975.23
2017-12-14T06:21:19.240Z,975.66
2017-12-14T06:22:25.307Z,975.26
2017-12-14T06:23:31.388Z,975.25
2017-12-14T06:24:37.018Z,975.69
2017-12-14T06:25:43.059Z,975.52
2017-12-14T06:26:49.136Z,975.38
2017-12-14T06:27:55.697Z,975.20
2017-12-14T06:29:01.273Z,975.93
2017-12-14T06:30:07.878Z,975.22
2017-12-14T06:31:13.444Z,975.75
2017-12-14T06:32:20.036Z,975.79
2017-12-14T06:33:26.111Z,975.47
2017-12-14T06:34:32.185Z,975.80
2017-12-14T06:35:38.233Z,975.88
2017-12-14T06:36:43.804Z,975.65
2017-12-14T06:37:50.386Z,976.07
2017-12-14T06:38:56.450Z,976.05
2017-12-14T06:40:02.150Z,975.83
2017-12-14T06:41:08.619Z,975.94
2017-12-14T06:42:14.209Z,975.82
2017-12-14T06:43:20.788Z,975.78
2017-12-14T06:44:26.848Z,976.20
2017-12-14T06:45:32.939Z,976.05
2017-12-14T06:46:39.014Z,976.07
2017-12-14T06:47:44.584Z,975.77
2017-12-14T06:48:50.651Z,976.33
2017-12-14T06:49:57.297Z,976.23
2017-12-14T06:51:03.321Z,976.21
2017-12-14T06:52:08.907Z,976.16
2017-12-14T06:53:15.464Z,976.13
2017-12-14T06:54:21.566Z,976.28
2017-12-14T06:55:27.653Z,976.26
2017-12-14T06:56:33.284Z,975.97
2017-12-14T06:57:39.794Z,976.63
2017-12-14T06:58:45.370Z,976.65
2017-12-14T06:59:51.955Z,976.22
2017-12-14T07:00:57.560Z,976.08
2017-12-14T07:02:03.619Z,976.41
2017-12-14T07:03:10.195Z,976.57
2017-12-14T07:04:16.285Z,976.60
2017-12-14T07:05:21.884Z,976.35
2017-12-14T07:06:28.443Z,976.82
2017-12-14T07:07:34.519Z,976.28
2017-12-14T07:08:40.607Z,976.74
2017-12-14T07:09:46.670Z,977.05
2017-12-14T07:10:52.304Z,976.96
2017-12-14T07:11:58.356Z,976.42
2017-12-14T07:13:04.916Z,976.64
2017-12-14T07:14:11.008Z,976.79
2017-12-14T07:15:16.590Z,977.00
2017-12-14T07:16:22.696Z,977.25
2017-12-14T07:17:28.743Z,976.80
2017-12-14T07:18:35.329Z,976.98
2017-12-14T07:19:41.414Z,976.65
2017-12-14T07:20:47.045Z,976.96
2017-12-14T07:21:53.153Z,976.99
2017-12-14T07:22:59.151Z,976.85
2017-12-14T07:24:05.238Z,977.07
2017-12-14T07:25:11.800Z,976.82
2017-12-14T07:26:17.434Z,977.10
2017-12-14T07:27:23.477Z,977.24
2017-12-14T07:28:30.178Z,977.01
2017-12-14T07:29:36.143Z,977.32
2017-12-14T07:30:42.209Z,977.41
2017-12-14T07:31:48.314Z,977.24
2017-12-14T07:32:54.405Z,976.81
2017-12-14T07:34:00.475Z,977.12
2017-12-14T07:35:06.543Z,977.45
2017-12-14T07:36:12.629Z,977.09
2017-12-14T07:37:18.237Z,977.12
2017-12-14T07:38:24.786Z,977.33
2017-12-14T07:39:30.873Z,977.45
2017-12-14T07:40:36.968Z,977.30
2017-12-14T07:41:43.035Z,977.32
2017-12-14T07:42:49.153Z,977.31
2017-12-14T07:43:55.205Z,977.47
2017-12-14T07:45:01.298Z,977.19
2017-12-14T07:46:07.888Z,977.36
2017-12-14T07:47:13.491Z,977.50
2017-12-14T07:48:19.076Z,977.44
2017-12-14T07:49:25.655Z,977.40
2017-12-14T07:50:31.234Z,977.62
2017-12-14T07:51:37.818Z,977.39
2017-12-14T07:52:43.429Z,977.51
2017-12-14T07:53:49.512Z,977.50
2017-12-14T07:54:56.102Z,977.32
2017-12-14T07:56:02.193Z,977.49
2017-12-14T07:57:07.819Z,977.53
2017-12-14T07:58:14.377Z,977.86
2017-12-14T07:59:20.545Z,977.52
2017-12-14T08:00:26.067Z,977.76
2017-12-14T08:01:32.685Z,977.81
2017-12-14T08:02:38.282Z,977.73
2017-12-14T08:03:44.875Z,977.81
2017-12-14T08:04:50.486Z,977.56
2017-12-14T08:05:56.580Z,977.57
2017-12-14T08:07:03.165Z,977.65
2017-12-14T08:08:09.303Z,977.55
2017-12-14T08:09:15.369Z,977.71
2017-12-14T08:10:20.993Z,977.66
2017-12-14T08:11:27.586Z,977.87
2017-12-14T08:12:33.706Z,977.67
2017-12-14T08:13:39.291Z,977.73
2017-12-14T08:14:45.903Z,978.08
2017-12-14T08:15:52.108Z,978.00
2017-12-14T08:16:58.128Z,977.81
2017-12-14T08:18:03.756Z,977.92
2017-12-14T08:19:10.337Z,977.61
2017-12-14T08:20:16.462Z,977.85
2017-12-14T08:21:22.096Z,977.93
2017-12-14T08:22:28.175Z,977.73
2017-12-14T08:23:34.830Z,978.05
2017-12-14T08:24:40.893Z,977.82
2017-12-14T08:25:47.022Z,977.73
2017-12-14T08:26:52.644Z,978.17
2017-12-14T08:27:59.257Z,978.04
2017-12-14T08:29:04.853Z,977.97
2017-12-14T08:30:11.471Z,978.03
2017-12-14T08:31:17.074Z,977.71
2017-12-14T08:32:23.673Z,977.96
2017-12-14T08:33:29.816Z,978.07
2017-12-14T08:34:35.423Z,977.99
2017-12-14T08:35:41.533Z,978.02
2017-12-14T08:36:48.131Z,977.99
2017-12-14T08:37:54.269Z,978.05
2017-12-14T08:38:59.899Z,978.04
2017-12-14T08:40:06.001Z,978.02
2017-12-14T08:41:12.602Z,978.24
2017-12-14T08:42:18.726Z,978.35
2017-12-14T08:43:24.853Z,978.03
2017-12-14T08:44:30.457Z,978.06
2017-12-14T08:45:36.561Z,978.25
2017-12-14T08:46:42.666Z,978.14
2017-12-14T08:47:48.771Z,978.01
2017-12-14T08:48:55.402Z,978.09
2017-12-14T08:50:01.504Z,977.94
2017-12-14T08:51:07.614Z,978.05
2017-12-14T08:52:13.750Z,978.16
2017-12-14T08:53:19.855Z,978.09
2017-12-14T08:54:25.993Z,978.38
2017-12-14T08:55:31.608Z,978.50
2017-12-14T08:56:37.719Z,978.44
2017-12-14T08:57:44.347Z,978.44
2017-12-14T08:58:50.479Z,978.36
2017-12-14T08:59:56.604Z,978.42
2017-12-14T09:01:02.725Z,978.52
2017-12-14T09:02:08.340Z,978.51
2017-12-14T09:03:14.952Z,978.52
2017-12-14T09:04:20.591Z,978.47
2017-12-14T09:05:27.224Z,978.59
2017-12-14T09:06:32.840Z,978.53
2017-12-14T09:07:39.456Z,978.31
2017-12-14T09:08:45.568Z,978.31
2017-12-14T09:09:51.221Z,978.37
2017-12-14T09:10:57.799Z,978.43
2017-12-14T09:12:03.442Z,978.45
2017-12-14T09:13:10.108Z,978.38
2017-12-14T09:14:16.191Z,978.68
2017-12-14T09:15:22.281Z,978.78
2017-12-14T09:16:27.985Z,978.69
2017-12-14T09:17:34.546Z,978.38
2017-12-14T09:18:40.195Z,978.34
2017-12-14T09:19:46.814Z,978.44
2017-12-14T09:20:52.952Z,978.47
2017-12-14T09:21:59.098Z,978.47
2017-12-14T09:23:05.225Z,978.55
2017-12-14T09:24:10.861Z,978.87
2017-12-14T09:25:17.501Z,979.01
2017-12-14T09:26:23.627Z,978.99
2017-12-14T09:27:29.802Z,978.79
2017-12-14T09:28:35.413Z,978.69
2017-12-14T09:29:41.576Z,978.75
2017-12-14T09:30:47.705Z,978.67
2017-12-14T09:31:53.829Z,978.65
2017-12-14T09:33:00.489Z,978.74
2017-12-14T09:34:06.624Z,978.77
2017-12-14T09:35:12.779Z,978.62
2017-12-14T09:36:18.406Z,978.76
2017-12-14T09:37:25.058Z,978.72
2017-12-14T09:38:31.200Z,978.78
2017-12-14T09:39:37.361Z,978.89
2017-12-14T09:40:43.483Z,978.74
2017-12-14T09:41:49.134Z,978.89
2017-12-14T09:42:55.391Z,978.84
2017-12-14T09:44:01.931Z,978.85
2017-12-14T09:45:07.629Z,978.83
2017-12-14T09:46:14.259Z,978.81
2017-12-14T09:47:20.393Z,978.80
2017-12-14T09:48:26.073Z,978.70
2017-12-14T09:49:32.714Z,978.90
2017-12-14T09:50:38.925Z,978.95
2017-12-14T09:51:45.055Z,978.95
2017-12-14T09:52:51.215Z,978.98
2017-12-14T09:53:57.387Z,979.09
2017-12-14T09:55:03.585Z,978.93
2017-12-14T09:56:09.239Z,978.92
2017-12-14T09:57:15.903Z,979.06
2017-12-14T09:58:22.121Z,978.91
2017-12-14T09:59:28.249Z,978.83
2017-12-14T10:00:33.963Z,978.92
2017-12-14T10:01:40.638Z,978.89
2017-12-14T10:02:46.325Z,978.83
2017-12-14T10:03:53.092Z,978.72
2017-12-14T10:04:59.246Z,978.92
2017-12-14T10:06:04.977Z,979.11
2017-12-14T10:07:11.208Z,978.87
2017-12-14T10:08:17.908Z,979.08
2017-12-14T10:09:23.643Z,979.24
2017-12-14T10:10:30.405Z,979.01
2017-12-14T10:11:36.613Z,979.05
2017-12-14T10:12:42.859Z,979.35
2017-12-14T10:13:49.122Z,979.44
2017-12-14T10:14:55.356Z,979.49
2017-12-14T10:16:01.095Z,979.53
2017-12-14T10:17:07.790Z,979.54
2017-12-14T10:18:14.128Z,979.29
2017-12-14T10:19:20.227Z,979.19
2017-12-14T10:20:26.470Z,979.18
2017-12-14T10:21:32.160Z,979.26
2017-12-14T10:22:38.854Z,979.11
2017-12-14T10:23:45.048Z,979.08
2017-12-14T10:24:51.236Z,979.03
2017-12-14T10:25:57.472Z,979.04
2017-12-14T10:27:03.644Z,979.07
2017-12-14T10:28:09.334Z,979.15
2017-12-14T10:29:16.022Z,979.08
2017-12-14T10:30:22.191Z,979.14
2017-12-14T10:31:27.892Z,979.16
2017-12-14T10:32:34.561Z,979.10
2017-12-14T10:33:40.739Z,979.07
2017-12-14T10:34:46.473Z,979.14
2017-12-14T10:35:53.084Z,979.17
2017-12-14T10:36:59.236Z,979.24
2017-12-14T10:38:05.436Z,979.07
2017-12-14T10:39:11.572Z,978.99
2017-12-14T10:40:17.756Z,979.05
2017-12-14T10:41:23.942Z,979.14
2017-12-14T10:42:30.106Z,979.09
2017-12-14T10:43:35.767Z,979.18
2017-12-14T10:44:41.922Z,978.96
2017-12-14T10:45:48.640Z,978.73
2017-12-14T10:46:54.767Z,978.79
2017-12-14T10:48:00.975Z,978.93
2017-12-14T10:49:07.139Z,978.96
2017-12-14T10:50:13.344Z,979.10
2017-12-14T10:51:19.587Z,978.84
2017-12-14T10:52:25.734Z,978.85
2017-12-14T10:53:31.443Z,978.98
2017-12-14T10:54:37.618Z,979.07
2017-12-14T10:55:44.329Z,979.01
2017-12-14T10:56:50.475Z,979.02
2017-12-14T10:57:56.656Z,978.85
2017-12-14T10:59:02.839Z,979.05
2017-12-14T11:00:09.025Z,978.99
2017-12-14T11:01:14.729Z,978.83
2017-12-14T11:02:21.366Z,978.79
2017-12-14T11:03:27.063Z,978.62
2017-12-14T11:04:33.704Z,978.66
2017-12-14T11:05:39.383Z,978.80
2017-12-14T11:06:45.589Z,978.85
2017-12-14T11:07:51.759Z,978.60
2017-12-14T11:08:57.899Z,978.66
2017-12-14T11:10:04.555Z,978.68
2017-12-14T11:11:10.742Z,978.55
2017-12-14T11:12:16.903Z,978.57
2017-12-14T11:13:23.063Z,978.51
2017-12-14T11:14:28.751Z,978.51
2017-12-14T11:15:35.409Z,978.39
2017-12-14T11:16:41.595Z,978.48
2017-12-14T11:17:47.746Z,978.40
2017-12-14T11:18:53.903Z,978.62
2017-12-14T11:20:00.124Z,978.45
2017-12-14T11:21:05.785Z,978.42
2017-12-14T11:22:12.424Z,978.43
2017-12-14T11:23:18.588Z,978.37
2017-12-14T11:24:24.291Z,978.40
2017-12-14T11:25:30.916Z,978.45
2017-12-14T11:26:37.112Z,978.40
2017-12-14T11:27:43.254Z,978.30
2017-12-14T11:28:49.432Z,978.47
2017-12-14T11:29:55.590Z,978.48
2017-12-14T11:31:01.784Z,978.34
2017-12-14T11:32:07.907Z,978.17
2017-12-14T11:33:14.111Z,978.26
2017-12-14T11:34:20.245Z,978.15
2017-12-14T11:35:26.420Z,978.23
2017-12-14T11:36:32.085Z,978.32
2017-12-14T11:37:38.736Z,978.45
2017-12-14T11:38:44.392Z,978.31
2017-12-14T11:39:51.047Z,978.29
2017-12-14T11:40:57.219Z,978.49
2017-12-14T11:42:02.894Z,978.37
2017-12-14T11:43:09.503Z,978.33
2017-12-14T11:44:15.206Z,978.40
2017-12-14T11:45:21.805Z,978.17
2017-12-14T11:46:27.983Z,978.07
2017-12-14T11:47:33.627Z,977.79
2017-12-14T11:48:40.302Z,977.81
2017-12-14T11:49:45.937Z,977.99
2017-12-14T11:50:52.090Z,977.95
2017-12-14T11:51:58.777Z,978.15
2017-12-14T11:53:04.423Z,978.00
2017-12-14T11:54:11.132Z,977.88
2017-12-14T11:55:17.758Z,977.81
2017-12-14T11:56:23.479Z,977.92
2017-12-14T11:57:29.570Z,978.01
2017-12-14T11:58:35.239Z,978.05
2017-12-14T11:59:41.365Z,977.99
2017-12-14T12:00:47.512Z,977.98
2017-12-14T12:01:53.693Z,978.05
2017-12-14T12:03:00.325Z,978.01
2017-12-14T12:04:06.522Z,978.09
2017-12-14T12:05:12.643Z,977.97
2017-12-14T12:06:18.790Z,977.93
2017-12-14T12:07:24.427Z,977.77
2017-12-14T12:08:31.051Z,977.75
2017-12-14T12:09:36.693Z,977.72
2017-12-14T12:10:43.352Z,977.64
2017-12-14T12:11:49.515Z,977.80
2017-12-14T12:12:55.139Z,977.72
2017-12-14T12:14:01.298Z,977.70
2017-12-14T12:15:07.441Z,977.72
2017-12-14T12:16:14.134Z,977.68
2017-12-14T12:17:20.238Z,977.65
2017-12-14T12:18:26.379Z,977.68
2017-12-14T12:19:32.536Z,977.77
2017-12-14T12:20:38.184Z,977.67
2017-12-14T12:21:44.851Z,977.69
2017-12-14T12:22:50.975Z,977.66
2017-12-14T12:23:56.637Z,977.60
2017-12-14T12:25:03.278Z,977.65
2017-12-14T12:26:09.457Z,977.66
2017-12-14T12:27:15.111Z,977.67
2017-12-14T12:28:21.298Z,977.74
2017-12-14T12:29:27.897Z,977.78
2017-12-14T12:30:33.556Z,977.71
2017-12-14T12:31:40.223Z,977.73
2017-12-14T12:32:46.339Z,977.71
2017-12-14T12:33:52.493Z,977.67
2017-12-14T12:34:58.144Z,977.68
2017-12-14T12:36:04.800Z,977.61
2017-12-14T12:37:10.959Z,977.54
2017-12-14T12:38:17.084Z,977.60
2017-12-14T12:39:23.218Z,977.66
2017-12-14T12:40:28.869Z,977.59
2017-12-14T12:41:35.538Z,977.47
2017-12-14T12:42:41.191Z,977.59
2017-12-14T12:43:47.802Z,977.55
2017-12-14T12:44:53.452Z,977.47
2017-12-14T12:45:59.591Z,977.52
2017-12-14T12:47:06.269Z,977.41
2017-12-14T12:48:12.392Z,977.38
2017-12-14T12:49:18.111Z,977.48
2017-12-14T12:50:24.660Z,977.52
2017-12-14T12:51:30.331Z,977.47
2017-12-14T12:52:36.445Z,977.39
2017-12-14T12:53:43.115Z,977.55
2017-12-14T12:54:48.744Z,977.49
2017-12-14T12:55:55.427Z,977.56
2017-12-14T12:57:01.581Z,977.63
2017-12-14T12:58:07.189Z,977.64
2017-12-14T12:59:13.848Z,977.61
2017-12-14T13:00:19.484Z,977.56
2017-12-14T13:01:25.643Z,977.56
2017-12-14T13:02:31.769Z,977.50
2017-12-14T13:03:38.448Z,977.54
2017-12-14T13:04:44.536Z,977.47
2017-12-14T13:05:50.210Z,977.63
2017-12-14T13:06:56.844Z,977.57
2017-12-14T13:08:02.963Z,977.58
2017-12-14T13:09:09.105Z,977.60
2017-12-14T13:10:15.266Z,977.64
2017-12-14T13:11:20.929Z,977.60
2017-12-14T13:12:27.555Z,977.55
2017-12-14T13:13:33.172Z,977.57
2017-12-14T13:14:39.804Z,977.61
2017-12-14T13:15:45.941Z,977.59
2017-12-14T13:16:52.094Z,977.59
2017-12-14T13:17:58.199Z,977.50
2017-12-14T13:19:04.386Z,977.60
2017-12-14T13:20:10.005Z,977.70
2017-12-14T13:21:16.166Z,977.70
2017-12-14T13:22:22.279Z,977.69
2017-12-14T13:23:28.890Z,977.74
2017-12-14T13:24:35.006Z,977.77
2017-12-14T13:25:41.155Z,977.73
2017-12-14T13:26:46.827Z,977.68
2017-12-14T13:27:53.435Z,977.80
2017-12-14T13:28:59.519Z,977.48
2017-12-14T13:30:05.143Z,977.52
2017-12-14T13:31:11.279Z,977.55
2017-12-14T13:32:17.906Z,977.54
2017-12-14T13:33:23.525Z,977.44
2017-12-14T13:34:29.645Z,977.63
2017-12-14T13:35:35.768Z,977.41
2017-12-14T13:36:42.393Z,977.64
2017-12-14T13:37:48.544Z,977.63
2017-12-14T13:38:54.660Z,977.65
2017-12-14T13:40:00.764Z,977.69
2017-12-14T13:41:06.893Z,977.67
2017-12-14T13:42:12.563Z,977.75
2017-12-14T13:43:19.127Z,977.73
2017-12-14T13:44:25.264Z,977.66